createdAt,value
2022-11-05T00:03:54.373Z,89.96
2022-11-05T00:07:38.526Z,90.43
2022-11-05T00:10:59.975Z,90.58
2022-11-05T00:14:56.492Z,90.66
2022-11-05T00:18:17.937Z,90.47
2022-11-05T00:22:14.663Z,90.50
2022-11-05T00:25:35.941Z,90.41
2022-11-05T00:29:33.797Z,90.30
2022-11-05T00:33:14.435Z,90.34
2022-11-05T00:36:35.611Z,90.56
2022-11-05T00:40:14.803Z,90.83
2022-11-05T00:44:09.729Z,90.54
2022-11-05T00:48:08.782Z,90.04
2022-11-05T00:51:29.994Z,89.48
2022-11-05T00:55:32.729Z,88.95
2022-11-05T00:59:12.881Z,88.28
2022-11-05T01:02:52.808Z,88.22
2022-11-05T01:06:16.124Z,88.25
2022-11-05T01:10:10.178Z,88.08
2022-11-05T01:13:32.287Z,87.84
2022-11-05T01:17:27.102Z,87.78
2022-11-05T01:20:49.226Z,87.91
2022-11-05T01:24:25.498Z,87.64
2022-11-05T01:28:04.607Z,87.26
2022-11-05T01:31:59.807Z,87.25
2022-11-05T01:35:21.152Z,87.29
2022-11-05T01:38:58.532Z,87.50
2022-11-05T01:42:36.358Z,87.52
2022-11-05T01:46:45.146Z,87.54
2022-11-05T01:50:32.539Z,87.30
2022-11-05T01:54:06.281Z,86.96
2022-11-05T01:57:33.038Z,87.28
2022-11-05T02:01:28.941Z,87.56
2022-11-05T02:04:54.961Z,87.64
2022-11-05T02:09:12.537Z,87.43
2022-11-05T02:12:36.720Z,87.28
2022-11-05T02:16:17.909Z,87.71
2022-11-05T02:20:09.608Z,87.80
2022-11-05T02:24:02.058Z,87.69
2022-11-05T02:27:54.364Z,87.65
2022-11-05T02:31:31.050Z,87.24
2022-11-05T02:35:41.033Z,86.99
2022-11-05T02:39:50.330Z,87.42
2022-11-05T02:43:22.168Z,87.76
2022-11-05T02:46:57.803Z,87.83
2022-11-05T02:50:55.908Z,87.80
2022-11-05T02:54:24.600Z,88.04
2022-11-05T02:57:55.396Z,88.12
2022-11-05T03:01:35.987Z,87.95
2022-11-05T03:05:10.701Z,87.71
2022-11-05T03:09:12.366Z,87.64
2022-11-05T03:13:11.568Z,87.74
2022-11-05T03:17:15.896Z,87.71
2022-11-05T03:20:59.103Z,87.67
2022-11-05T03:24:26.726Z,87.60
2022-11-05T03:28:21.379Z,87.58
2022-11-05T03:32:04.051Z,87.74
2022-11-05T03:35:29.532Z,87.79
2022-11-05T03:39:49.937Z,87.64
2022-11-05T03:43:14.310Z,87.87
2022-11-05T03:46:49.800Z,88.03
2022-11-05T03:50:42.005Z,88.30
2022-11-05T03:54:05.083Z,88.30
2022-11-05T03:57:44.219Z,88.13
2022-11-05T04:01:18.754Z,87.91
2022-11-05T04:04:56.530Z,88.01
2022-11-05T04:08:52.939Z,88.12
2022-11-05T04:12:33.267Z,88.16
2022-11-05T04:16:32.091Z,88.26
2022-11-05T04:20:11.972Z,88.26
2022-11-05T04:23:52.554Z,87.99
2022-11-05T04:27:13.707Z,88.02
2022-11-05T04:30:51.214Z,88.14
2022-11-05T04:34:29.127Z,88.56
2022-11-05T04:38:09.412Z,88.43
2022-11-05T04:41:48.004Z,88.15
2022-11-05T04:45:23.928Z,87.99
2022-11-05T04:48:59.936Z,88.19
2022-11-05T04:52:37.640Z,88.30
2022-11-05T04:56:19.808Z,88.87
2022-11-05T04:59:55.119Z,88.84
2022-11-05T05:03:51.284Z,88.55
2022-11-05T05:07:31.984Z,88.64
2022-11-05T05:10:52.699Z,88.94
2022-11-05T05:14:30.103Z,88.88
2022-11-05T05:18:09.545Z,88.89
2022-11-05T05:21:45.377Z,88.94
2022-11-05T05:25:41.935Z,89.15
2022-11-05T05:29:03.642Z,89.43
2022-11-05T05:33:02.404Z,89.57
2022-11-05T05:36:23.943Z,89.40
2022-11-05T05:40:01.088Z,89.32
2022-11-05T05:43:38.458Z,89.80
2022-11-05T05:47:16.353Z,89.77
2022-11-05T05:50:53.925Z,89.79
2022-11-05T05:54:50.543Z,89.69
2022-11-05T05:58:11.208Z,89.62
2022-11-05T06:01:49.149Z,89.54
2022-11-05T06:05:26.456Z,89.72
2022-11-05T06:09:04.280Z,89.95
2022-11-05T06:12:41.818Z,89.92
2022-11-05T06:16:39.726Z,89.77
2022-11-05T06:20:19.444Z,89.77
2022-11-05T06:23:42.260Z,90.11
2022-11-05T06:27:36.578Z,90.50
2022-11-05T06:30:57.924Z,90.94
2022-11-05T06:34:36.832Z,90.97
2022-11-05T06:38:33.539Z,91.15
2022-11-05T06:42:20.571Z,91.18
2022-11-05T06:45:41.861Z,91.27
2022-11-05T06:49:38.866Z,91.46
2022-11-05T06:53:18.459Z,91.50
2022-11-05T06:56:57.962Z,91.36
2022-11-05T07:00:38.468Z,91.39
2022-11-05T07:03:59.204Z,91.52
2022-11-05T07:07:53.922Z,91.90
2022-11-05T07:11:14.544Z,92.20
2022-11-05T07:14:52.492Z,92.30
2022-11-05T07:18:48.837Z,92.43
2022-11-05T07:22:28.244Z,92.51
2022-11-05T07:25:48.786Z,92.26
2022-11-05T07:29:45.439Z,92.13
2022-11-05T07:33:24.851Z,92.09
2022-11-05T07:37:04.522Z,92.22
2022-11-05T07:40:28.013Z,92.62
2022-11-05T07:44:04.145Z,92.56
2022-11-05T07:48:02.317Z,92.47
2022-11-05T07:51:23.299Z,92.31
2022-11-05T07:55:00.739Z,92.33
2022-11-05T07:58:39.066Z,92.26
2022-11-05T08:02:16.339Z,92.33
2022-11-05T08:06:12.876Z,92.27
2022-11-05T08:09:33.743Z,92.23
2022-11-05T08:13:13.403Z,92.06
2022-11-05T08:17:08.019Z,92.05
2022-11-05T08:20:29.379Z,92.19
2022-11-05T08:24:06.672Z,92.50
2022-11-05T08:27:45.735Z,92.53
2022-11-05T08:31:40.266Z,92.50
2022-11-05T08:35:19.885Z,92.59
2022-11-05T08:38:58.983Z,92.71
2022-11-05T08:42:19.650Z,92.70
2022-11-05T08:46:16.395Z,92.54
2022-11-05T08:49:37.307Z,92.40
2022-11-05T08:53:15.716Z,92.41
2022-11-05T08:56:52.804Z,92.43
2022-11-05T09:00:49.524Z,92.40
2022-11-05T09:04:10.479Z,92.54
2022-11-05T09:07:48.428Z,92.60
2022-11-05T09:11:43.027Z,92.54
2022-11-05T09:15:26.857Z,92.63
2022-11-05T09:18:48.385Z,92.41
2022-11-05T09:22:25.359Z,92.45
2022-11-05T09:26:22.092Z,92.42
2022-11-05T09:30:02.361Z,92.67
2022-11-05T09:33:42.004Z,92.75
2022-11-05T09:37:02.999Z,92.59
2022-11-05T09:41:11.880Z,92.56
2022-11-05T09:44:49.128Z,92.46
2022-11-05T09:48:33.266Z,92.35
2022-11-05T09:51:56.661Z,92.45
2022-11-05T09:55:41.997Z,92.54
2022-11-05T09:59:35.899Z,92.62
2022-11-05T10:03:21.418Z,92.55
2022-11-05T10:06:50.137Z,92.36
2022-11-05T10:10:41.023Z,92.28
2022-11-05T10:14:33.029Z,92.17
2022-11-05T10:17:59.624Z,92.27
2022-11-05T10:21:51.831Z,92.26
2022-11-05T10:25:37.322Z,92.16
2022-11-05T10:28:58.249Z,92.07
2022-11-05T10:32:40.489Z,92.05
2022-11-05T10:36:37.258Z,92.28
2022-11-05T10:40:30.420Z,92.39
2022-11-05T10:44:28.363Z,92.46
2022-11-05T10:47:58.347Z,92.39
2022-11-05T10:51:27.455Z,92.16
2022-11-05T10:55:34.712Z,92.07
2022-11-05T10:59:27.682Z,92.16
2022-11-05T11:03:29.490Z,92.32
2022-11-05T11:06:56.854Z,92.66
2022-11-05T11:11:04.570Z,92.82
2022-11-05T11:15:01.966Z,92.71
2022-11-05T11:18:29.258Z,92.59
2022-11-05T11:22:03.645Z,92.48
2022-11-05T11:26:01.059Z,92.65
2022-11-05T11:29:28.765Z,92.73
2022-11-05T11:33:23.205Z,92.82
2022-11-05T11:36:49.302Z,92.98
2022-11-05T11:40:23.495Z,92.91
2022-11-05T11:44:19.577Z,92.86
2022-11-05T11:48:11.643Z,92.69
2022-11-05T11:51:40.802Z,92.77
2022-11-05T11:55:13.480Z,92.78
2022-11-05T11:59:30.799Z,92.93
2022-11-05T12:03:15.047Z,93.10
2022-11-05T12:07:19.802Z,93.20
2022-11-05T12:10:54.587Z,93.20
2022-11-05T12:14:53.876Z,92.99
2022-11-05T12:18:39.708Z,93.03
2022-11-05T12:22:26.736Z,93.14
2022-11-05T12:25:50.696Z,93.24
2022-11-05T12:29:38.278Z,93.21
2022-11-05T12:33:49.488Z,93.07
2022-11-05T12:37:26.131Z,92.76
2022-11-05T12:40:57.059Z,92.39
2022-11-05T12:44:38.153Z,92.29
2022-11-05T12:48:27.539Z,92.51
2022-11-05T12:51:59.855Z,92.48
2022-11-05T12:55:48.388Z,92.56
2022-11-05T12:59:16.033Z,92.65
2022-11-05T13:03:02.527Z,92.43
2022-11-05T13:06:39.773Z,92.27
2022-11-05T13:10:25.290Z,92.00
2022-11-05T13:14:14.600Z,92.07
2022-11-05T13:17:59.364Z,92.26
2022-11-05T13:21:24.212Z,92.27
2022-11-05T13:25:21.068Z,92.25
2022-11-05T13:28:55.656Z,92.25
2022-11-05T13:32:38.010Z,91.97
2022-11-05T13:36:45.805Z,91.95
2022-11-05T13:40:11.971Z,92.08
2022-11-05T13:44:41.239Z,92.18
2022-11-05T13:48:33.075Z,92.31
2022-11-05T13:52:23.160Z,92.33
2022-11-05T13:56:03.452Z,92.16
2022-11-05T13:59:57.879Z,91.90
2022-11-05T14:03:21.207Z,91.81
2022-11-05T14:07:15.263Z,91.79
2022-11-05T14:10:43.936Z,91.87
2022-11-05T14:14:22.904Z,91.78
2022-11-05T14:18:23.447Z,91.81
2022-11-05T14:22:28.120Z,91.58
2022-11-05T14:26:21.670Z,91.50
2022-11-05T14:29:49.822Z,91.47
2022-11-05T14:33:26.231Z,91.44
2022-11-05T14:37:22.297Z,91.42
2022-11-05T14:40:47.689Z,91.35
2022-11-05T14:44:21.288Z,91.30
2022-11-05T14:48:05.327Z,91.33
2022-11-05T14:51:58.568Z,91.38
2022-11-05T14:55:42.618Z,91.30
2022-11-05T14:59:30.924Z,91.41
2022-11-05T15:02:58.175Z,91.23
2022-11-05T15:06:37.348Z,91.00
2022-11-05T15:10:15.726Z,90.87
2022-11-05T15:14:02.831Z,90.86
2022-11-05T15:17:31.978Z,90.83
2022-11-05T15:21:05.019Z,90.74
2022-11-05T15:24:42.895Z,90.67
2022-11-05T15:28:37.421Z,90.38
2022-11-05T15:31:59.076Z,90.36
2022-11-05T15:35:39.773Z,90.41
2022-11-05T15:39:41.645Z,90.52
2022-11-05T15:43:19.648Z,90.45
2022-11-05T15:46:41.116Z,90.28
2022-11-05T15:50:18.653Z,90.07
2022-11-05T15:54:28.949Z,90.01
2022-11-05T15:57:51.289Z,90.03
2022-11-05T16:01:28.370Z,89.95
2022-11-05T16:05:17.744Z,89.93
2022-11-05T16:08:57.460Z,89.91
2022-11-05T16:12:18.954Z,89.83
2022-11-05T16:16:00.051Z,89.49
2022-11-05T16:19:40.340Z,89.00
2022-11-05T16:23:25.258Z,88.97
2022-11-05T16:27:03.606Z,89.14
2022-11-05T16:30:27.687Z,89.23
2022-11-05T16:34:40.857Z,89.36
2022-11-05T16:38:20.473Z,89.43
2022-11-05T16:41:43.359Z,89.39
2022-11-05T16:45:41.278Z,89.06
2022-11-05T16:49:21.996Z,88.99
2022-11-05T16:52:45.188Z,88.99
2022-11-05T16:56:22.614Z,89.25
2022-11-05T17:00:00.524Z,89.16
2022-11-05T17:03:54.704Z,89.26
2022-11-05T17:07:15.392Z,88.95
2022-11-05T17:11:17.393Z,89.03
2022-11-05T17:14:38.604Z,89.08
2022-11-05T17:18:18.768Z,89.17
2022-11-05T17:22:12.300Z,89.20
2022-11-05T17:25:33.213Z,89.11
2022-11-05T17:29:11.291Z,89.01
2022-11-05T17:33:07.434Z,88.73
2022-11-05T17:36:28.107Z,88.77
2022-11-05T17:40:08.035Z,88.91
2022-11-05T17:44:02.340Z,89.08
2022-11-05T17:47:42.144Z,89.34
2022-11-05T17:51:03.498Z,89.49
2022-11-05T17:54:40.340Z,89.43
2022-11-05T17:58:18.958Z,89.37
2022-11-05T18:01:56.217Z,89.51
2022-11-05T18:05:52.449Z,89.48
2022-11-05T18:09:13.891Z,89.59
2022-11-05T18:12:51.204Z,89.67
2022-11-05T18:16:28.269Z,89.74
2022-11-05T18:20:10.695Z,89.63
2022-11-05T18:23:43.882Z,89.34
2022-11-05T18:27:24.642Z,89.45
2022-11-05T18:31:20.033Z,89.40
2022-11-05T18:34:40.886Z,89.70
2022-11-05T18:38:18.550Z,89.88
2022-11-05T18:41:56.318Z,89.96
2022-11-05T18:45:55.813Z,89.85
2022-11-05T18:49:16.662Z,89.55
2022-11-05T18:52:54.227Z,89.28
2022-11-05T18:56:32.645Z,89.35
2022-11-05T19:00:10.075Z,89.55
2022-11-05T19:03:48.118Z,89.67
2022-11-05T19:07:24.821Z,89.61
2022-11-05T19:11:09.347Z,89.45
2022-11-05T19:15:02.333Z,89.32
2022-11-05T19:18:24.007Z,89.10
2022-11-05T19:22:01.545Z,89.27
2022-11-05T19:25:39.368Z,89.33
2022-11-05T19:29:16.729Z,89.51
2022-11-05T19:32:57.341Z,89.50
2022-11-05T19:36:33.259Z,89.48
2022-11-05T19:40:28.817Z,89.45
2022-11-05T19:43:50.342Z,89.35
2022-11-05T19:47:27.289Z,89.33
2022-11-05T19:51:10.285Z,89.54
2022-11-05T19:54:42.671Z,89.59
2022-11-05T19:58:20.102Z,89.65
2022-11-05T20:02:18.454Z,89.69
2022-11-05T20:05:39.375Z,89.40
2022-11-05T20:09:22.052Z,89.29
2022-11-05T20:13:19.634Z,89.06
2022-11-05T20:16:42.391Z,89.12
2022-11-05T20:20:19.402Z,89.24
2022-11-05T20:24:22.462Z,89.42
2022-11-05T20:27:45.225Z,89.43
2022-11-05T20:31:24.073Z,89.38
2022-11-05T20:35:00.617Z,89.26
2022-11-05T20:38:38.649Z,89.12
2022-11-05T20:42:36.999Z,89.19
2022-11-05T20:45:59.085Z,89.25
2022-11-05T20:49:36.867Z,89.41
2022-11-05T20:53:14.432Z,89.44
2022-11-05T20:57:10.619Z,89.55
2022-11-05T21:00:31.557Z,89.33
2022-11-05T21:04:08.908Z,89.06
2022-11-05T21:08:05.638Z,88.95
2022-11-05T21:11:26.824Z,89.01
2022-11-05T21:15:05.972Z,89.14
2022-11-05T21:18:42.139Z,89.27
2022-11-05T21:22:20.035Z,89.41
2022-11-05T21:25:57.427Z,89.24
2022-11-05T21:29:35.269Z,89.20
2022-11-05T21:33:32.851Z,88.98
2022-11-05T21:37:12.762Z,88.89
2022-11-05T21:40:33.417Z,88.85
2022-11-05T21:44:11.225Z,88.87
2022-11-05T21:47:48.750Z,88.93
2022-11-05T21:51:45.898Z,89.26
2022-11-05T21:55:44.704Z,89.32
2022-11-05T21:59:25.300Z,89.11
2022-11-05T22:02:46.781Z,88.99
2022-11-05T22:06:43.386Z,88.60
2022-11-05T22:10:09.658Z,88.21
2022-11-05T22:14:00.463Z,88.17
2022-11-05T22:17:21.882Z,88.48
2022-11-05T22:21:18.357Z,88.67
2022-11-05T22:24:59.066Z,88.90
2022-11-05T22:28:20.170Z,88.78
2022-11-05T22:32:16.503Z,88.48
2022-11-05T22:35:39.431Z,88.42
2022-11-05T22:39:33.871Z,88.30
2022-11-05T22:42:54.560Z,88.46
2022-11-05T22:46:51.954Z,88.52
2022-11-05T22:50:12.659Z,88.59
2022-11-05T22:53:50.581Z,88.58
2022-11-05T22:57:27.980Z,88.36
2022-11-05T23:01:07.981Z,88.23
2022-11-05T23:04:43.234Z,88.17
2022-11-05T23:08:58.466Z,88.12
2022-11-05T23:12:38.579Z,87.93
2022-11-05T23:16:18.125Z,87.96
2022-11-05T23:20:30.992Z,88.13
2022-11-05T23:24:06.944Z,87.99
2022-11-05T23:27:50.759Z,88.07
2022-11-05T23:31:30.075Z,87.72
2022-11-05T23:35:10.987Z,87.60
2022-11-05T23:38:50.808Z,87.78
2022-11-05T23:42:51.522Z,87.51
2022-11-05T23:46:49.833Z,87.42
2022-11-05T23:50:34.405Z,87.64
2022-11-05T23:54:16.493Z,87.78
2022-11-05T23:57:38.128Z,87.89
